Flight Track Log - Related Links

Times and Time Zones

All times are in EDT time to prevent confusion due to time zone crossing. See the CTL17 flight status page for this flight to view local times or setup timezone preferences in your user account.

Time Position Orientation Groundspeed Altitude Reporting Facility
EDT Latitude Longitude Course Direction KTS MPH feet Rate Location/Type
Mon 05:34:45 PM 42.2150 -83.5664 238° Southwest 123 142 1,500  Level Cleveland Center
Mon 05:35:46 PM 42.1853 -83.5956 216° Southwest 135 155 2,200 678 Climbing Cleveland Center
Mon 05:36:40 PM 42.1572 -83.6281 221° Southwest 146 168 2,800 446 Climbing Cleveland Center
Mon 05:37:47 PM 42.1117 -83.6175 170° South 160 184 3,100 94 Climbing Cleveland Center
Mon 05:38:48 PM 42.0681 -83.6042 167° South 168 193 3,000 -52 Descending Cleveland Center
Mon 05:39:43 PM 42.0444 -83.5556 123° Southeast 170 196 3,000 52 Level Cleveland Center
Mon 05:40:44 PM 42.0272 -83.4958 111° Southeast 174 200 3,100  Climbing Cleveland Center
Mon 05:41:45 PM 42.0078 -83.4364 114° Southeast 175 201 3,000 -47 Descending Cleveland Center
Mon 05:42:52 PM 41.9867 -83.3683 113° Southeast 176 203 3,000 94 Level Cleveland Center
Mon 05:43:53 PM 41.9736 -83.3036 105° East 174 200 3,200 422 Climbing Cleveland Center
Mon 05:45:00 PM 41.9542 -83.2386 112° Southeast 171 197 3,900 516 Climbing Cleveland Center
Mon 05:46:01 PM 41.9369 -83.1792 111° Southeast 171 197 4,300 492 Climbing Cleveland Center
Mon 05:47:02 PM 41.9214 -83.1172 109° East 169 194 4,900 393 Climbing Cleveland Center
Mon 05:48:03 PM 41.9042 -83.0550 110° East 181 208 5,100 67 Climbing Cleveland Center
Mon 05:48:32 PM 41.8942 -83.0297 118° Southeast 177 204 5,000 -63 Descending Cleveland Center
Mon 05:49:39 PM 41.8706 -82.9617 115° Southeast 190 219 5,000  Level Cleveland Center
Mon 05:50:40 PM 41.8553 -82.8914 106° East 179 206 5,000  Level Cleveland Center
Mon 05:51:53 PM 41.8383 -82.8128 106° East 185 213 5,000  Level Cleveland Center
Mon 05:52:59 PM 41.8228 -82.7425 107° East 183 211 5,000  Level Cleveland Center
Mon 05:53:54 PM 41.8094 -82.6836 107° East 183 211 5,000 52 Level Cleveland Center
Mon 05:54:55 PM 41.7958 -82.6192 106° East 182 209 5,100  Climbing Cleveland Center
Mon 05:55:56 PM 41.7786 -82.5433 107° East 184 212 5,000 -49 Descending Cleveland Center
Mon 05:56:57 PM 41.7650 -82.4789 106° East 184 212 5,000 -109 Level Cleveland Center
Mon 05:57:46 PM 41.7575 -82.4314 102° East 184 212 4,800 -443 Descending Cleveland Center
Mon 05:58:59 PM 41.7339 -82.3389 109° East 201 231 4,100 -496 Descending Cleveland Center
Mon 05:59:59 PM 41.7183 -82.2689 107° East 196 226 3,700 -496 Descending Cleveland Center
Mon 06:01:00 PM 41.7025 -82.2017 107° East 187 215 3,100 -362 Descending Cleveland Center
Mon 06:01:55 PM 41.6908 -82.1431 105° East 186 214 3,000 -103 Descending Cleveland Center
Mon 06:02:56 PM 41.6769 -82.0844 108° East 172 198 2,900 -246 Descending Cleveland Center
Mon 06:03:57 PM 41.6550 -82.0200 114° Southeast 186 214 2,500 -234 Descending Cleveland Center
Mon 06:05:04 PM 41.6328 -81.9556 115° Southeast 173 199 2,400 -209 Descending Cleveland Center
Mon 06:05:52 PM 41.6125 -81.9106 121° Southeast 170 196 2,100 -291 Descending Cleveland Center
Mon 06:06:47 PM 41.5922 -81.8631 120° Southeast 176 203 1,900 -188 Descending Cleveland Center
Mon 06:08:00 PM 41.5617 -81.7931 120° Southeast 172 198 1,700 -141 Descending Cleveland Center
Mon 06:08:55 PM 41.5372 -81.7483 126° Southeast 164 189 1,600 -310 Descending Cleveland Center
Mon 06:09:56 PM 41.5061 -81.7117 139° Southeast 129 148 1,100 -492 Descending Cleveland Center
Mon 06:11:00 PM 41.5175 -81.6833 108° East  Level Estimated
Mon 06:18:00 PM 41.5175 -81.6833 108° East  Level Estimated

Login

Don't have an account? Register now (free) for customized features, flight alerts, and more!